Time;durP1;ratioP1;P1;durP2;ratioP2;P2;SDS_P1;SDS_P2;PMS_P1;PMS_P2;Temp;Humidity;BMP_temperature;BMP_pressure;BME280_temperature;BME280_humidity;BME280_pressure;Samples;Min_cycle;Max_cycle;Signal;HPM_P1;HPM_P2
2022/11/21 00:00:53;;;;;;;6.10;4.20;;;;;;;;;;5074078;28;20032;-62
2022/11/21 00:03:19;;;;;;;6.40;4.43;;;;;;;;;;5073437;28;20027;-70
2022/11/21 00:05:47;;;;;;;7.63;4.88;;;;;;;;;;5073619;28;20459;-69
2022/11/21 00:08:16;;;;;;;6.93;4.22;;;;;;;;;;5074123;28;20056;-69
2022/11/21 00:10:42;;;;;;;6.13;4.40;;;;;;;;;;5073926;28;20060;-69
2022/11/21 00:13:12;;;;;;;6.85;5.00;;;;;;;;;;5055842;28;20380;-69
2022/11/21 00:15:38;;;;;;;6.03;4.25;;;;;;;;;;5073200;28;20019;-69
2022/11/21 00:18:04;;;;;;;5.82;4.85;;;;;;;;;;5073915;28;20028;-69
2022/11/21 00:20:30;;;;;;;6.20;4.38;;;;;;;;;;5073769;28;20422;-62
2022/11/21 00:22:56;;;;;;;7.03;4.75;;;;;;;;;;5073840;28;20039;-62
2022/11/21 00:25:21;;;;;;;5.97;4.30;;;;;;;;;;5073151;28;20055;-63
2022/11/21 00:27:47;;;;;;;6.90;4.85;;;;;;;;;;5072891;28;20082;-62
2022/11/21 00:30:13;;;;;;;5.40;4.18;;;;;;;;;;5072837;28;20092;-62
2022/11/21 00:32:38;;;;;;;5.97;4.38;;;;;;;;;;5055260;28;20039;-63
2022/11/21 00:35:05;;;;;;;6.85;4.40;;;;;;;;;;5073575;28;20021;-63
2022/11/21 00:37:32;;;;;;;6.38;4.43;;;;;;;;;;5073482;28;20120;-64
2022/11/21 00:39:58;;;;;;;6.43;4.55;;;;;;;;;;5073451;28;20016;-69
2022/11/21 00:42:23;;;;;;;6.10;4.85;;;;;;;;;;5073423;28;20021;-68
2022/11/21 00:44:49;;;;;;;6.05;4.43;;;;;;;;;;5073306;28;20361;-70
2022/11/21 00:47:14;;;;;;;8.50;4.22;;;;;;;;;;5073531;28;20077;-69
2022/11/21 00:49:40;;;;;;;6.00;4.55;;;;;;;;;;5073316;28;20025;-68
2022/11/21 00:52:05;;;;;;;6.88;4.47;;;;;;;;;;5073527;28;20074;-69
2022/11/21 00:54:31;;;;;;;5.47;4.28;;;;;;;;;;5073421;28;20459;-68
2022/11/21 00:56:56;;;;;;;7.50;4.40;;;;;;;;;;5073136;28;20021;-68
2022/11/21 00:59:22;;;;;;;4.97;3.90;;;;;;;;;;5073030;28;20055;-64
2022/11/21 01:01:47;;;;;;;6.53;5.03;;;;;;;;;;5073044;28;20027;-62
2022/11/21 01:04:16;;;;;;;5.10;4.07;;;;;;;;;;5072866;28;20029;-63
2022/11/21 01:06:41;;;;;;;6.63;4.47;;;;;;;;;;5073194;28;20438;-62
2022/11/21 01:09:07;;;;;;;6.22;4.35;;;;;;;;;;5054877;28;20047;-62
2022/11/21 01:11:33;;;;;;;5.78;4.60;;;;;;;;;;5073165;28;20036;-62
2022/11/21 01:13:59;;;;;;;7.47;4.70;;;;;;;;;;5072824;28;20476;-62
2022/11/21 01:16:26;;;;;;;6.03;4.25;;;;;;;;;;5072811;28;20024;-62
2022/11/21 01:18:52;;;;;;;8.90;4.50;;;;;;;;;;5072691;28;20480;-62
2022/11/21 01:21:24;;;;;;;6.05;4.50;;;;;;;;;;5072727;28;20070;-62
2022/11/21 01:23:50;;;;;;;5.47;4.07;;;;;;;;;;5072658;28;20029;-62
2022/11/21 01:26:19;;;;;;;6.18;4.10;;;;;;;;;;5072701;28;20023;-63
2022/11/21 01:28:45;;;;;;;5.53;4.88;;;;;;;;;;5072637;28;20032;-68
2022/11/21 01:31:16;;;;;;;6.45;4.35;;;;;;;;;;5072645;28;20020;-69
2022/11/21 01:33:42;;;;;;;6.65;4.28;;;;;;;;;;5072646;28;20028;-66
2022/11/21 01:36:25;;;;;;;4.97;4.25;;;;;;;;;;5072567;28;20023;-70
2022/11/21 01:38:53;;;;;;;4.95;4.18;;;;;;;;;;5072494;28;20039;-69
2022/11/21 01:41:32;;;;;;;6.13;4.50;;;;;;;;;;5072759;28;20485;-70
2022/11/21 01:43:59;;;;;;;6.25;4.47;;;;;;;;;;5071770;28;20115;-69
2022/11/21 01:46:25;;;;;;;5.82;4.57;;;;;;;;;;5072116;28;20040;-68
2022/11/21 01:48:50;;;;;;;5.85;4.75;;;;;;;;;;5072387;28;20039;-70
2022/11/21 01:51:29;;;;;;;5.90;4.70;;;;;;;;;;5072656;28;20020;-64
2022/11/21 01:54:08;;;;;;;7.18;4.72;;;;;;;;;;5072376;28;20025;-69
2022/11/21 01:56:47;;;;;;;5.97;4.20;;;;;;;;;;5072307;28;20029;-70
2022/11/21 01:59:21;;;;;;;5.43;4.32;;;;;;;;;;5072342;28;20025;-68
2022/11/21 02:01:51;;;;;;;5.68;4.50;;;;;;;;;;5072296;28;20030;-67
2022/11/21 02:04:17;;;;;;;5.47;4.03;;;;;;;;;;5072480;28;20029;-69
2022/11/21 02:06:43;;;;;;;6.85;4.25;;;;;;;;;;5072122;28;20024;-63
2022/11/21 02:09:09;;;;;;;6.00;4.50;;;;;;;;;;5072251;28;20393;-62
2022/11/21 02:11:40;;;;;;;5.20;4.03;;;;;;;;;;5054510;28;20029;-62
2022/11/21 02:14:06;;;;;;;6.85;4.63;;;;;;;;;;5072502;28;20043;-62
2022/11/21 02:16:33;;;;;;;6.47;4.38;;;;;;;;;;5072071;28;20421;-62
2022/11/21 02:18:59;;;;;;;4.65;4.10;;;;;;;;;;5072158;28;20017;-62
2022/11/21 02:21:56;;;;;;;5.70;4.32;;;;;;;;;;5072141;28;20036;-62
2022/11/21 02:24:36;;;;;;;5.75;4.15;;;;;;;;;;5072122;28;20032;-62
2022/11/21 02:27:02;;;;;;;5.43;4.28;;;;;;;;;;5072098;28;20052;-62
2022/11/21 02:29:28;;;;;;;5.60;4.25;;;;;;;;;;5072089;28;20029;-67
2022/11/21 02:31:53;;;;;;;5.53;4.45;;;;;;;;;;5072029;28;20017;-62
2022/11/21 02:34:19;;;;;;;4.85;4.00;;;;;;;;;;5071978;28;20032;-63
2022/11/21 02:36:46;;;;;;;7.45;4.15;;;;;;;;;;5071922;28;20020;-64
2022/11/21 02:39:38;;;;;;;7.00;4.60;;;;;;;;;;5071945;28;20025;-62
2022/11/21 02:42:15;;;;;;;4.93;3.95;;;;;;;;;;5067949;28;20039;-63
2022/11/21 02:44:54;;;;;;;5.13;4.20;;;;;;;;;;5071893;28;20452;-66
2022/11/21 02:47:21;;;;;;;5.68;4.03;;;;;;;;;;5072182;28;20467;-69
2022/11/21 02:49:58;;;;;;;4.65;3.72;;;;;;;;;;5071858;28;20051;-69
2022/11/21 02:52:24;;;;;;;4.85;4.15;;;;;;;;;;5071851;28;20100;-68
2022/11/21 02:54:49;;;;;;;5.65;4.05;;;;;;;;;;5071761;28;20111;-68
2022/11/21 02:57:15;;;;;;;5.28;4.45;;;;;;;;;;5074782;28;20028;-69
2022/11/21 02:59:40;;;;;;;4.55;3.90;;;;;;;;;;5075750;28;20037;-69
2022/11/21 03:02:06;;;;;;;7.22;4.50;;;;;;;;;;5075387;28;20027;-68
2022/11/21 03:04:31;;;;;;;5.25;4.18;;;;;;;;;;5075198;28;20040;-69
2022/11/21 03:06:57;;;;;;;5.63;4.47;;;;;;;;;;5075299;28;20176;-69
2022/11/21 03:09:22;;;;;;;4.93;3.88;;;;;;;;;;5074974;28;20052;-71
2022/11/21 03:11:48;;;;;;;5.05;3.83;;;;;;;;;;5075517;28;20034;-69
2022/11/21 03:14:13;;;;;;;5.50;4.00;;;;;;;;;;5075080;28;20035;-62
2022/11/21 03:16:39;;;;;;;5.85;4.18;;;;;;;;;;5075065;28;20020;-61
2022/11/21 03:19:05;;;;;;;5.80;4.35;;;;;;;;;;5075086;28;20047;-62
2022/11/21 03:21:30;;;;;;;4.75;3.97;;;;;;;;;;5075049;28;20498;-61
2022/11/21 03:23:56;;;;;;;4.70;3.80;;;;;;;;;;5075142;28;20024;-68
2022/11/21 03:26:21;;;;;;;7.40;4.20;;;;;;;;;;5074926;28;20032;-68
2022/11/21 03:28:47;;;;;;;4.35;3.80;;;;;;;;;;5057250;28;20346;-69
2022/11/21 03:31:12;;;;;;;4.95;3.83;;;;;;;;;;5075076;28;20025;-67
2022/11/21 03:33:38;;;;;;;6.20;4.10;;;;;;;;;;5074812;28;20029;-69
2022/11/21 03:36:03;;;;;;;5.20;4.07;;;;;;;;;;5074758;28;20033;-68
2022/11/21 03:38:29;;;;;;;5.22;4.15;;;;;;;;;;5074688;28;20025;-69
2022/11/21 03:40:54;;;;;;;5.65;4.00;;;;;;;;;;5074924;28;20032;-69
2022/11/21 03:43:20;;;;;;;5.20;3.80;;;;;;;;;;5074636;28;20020;-69
2022/11/21 03:45:46;;;;;;;5.63;4.03;;;;;;;;;;5074762;28;20075;-69
2022/11/21 03:48:13;;;;;;;4.93;4.20;;;;;;;;;;5074505;28;20017;-69
2022/11/21 03:50:42;;;;;;;4.57;3.90;;;;;;;;;;5074488;28;20025;-70
2022/11/21 03:53:07;;;;;;;4.40;4.00;;;;;;;;;;5074677;28;20021;-62
2022/11/21 03:55:33;;;;;;;4.63;3.92;;;;;;;;;;5074415;28;20471;-62
2022/11/21 03:57:58;;;;;;;4.82;3.85;;;;;;;;;;5074366;28;20099;-62
2022/11/21 04:00:24;;;;;;;4.50;4.07;;;;;;;;;;5074554;28;20090;-63
2022/11/21 04:02:49;;;;;;;4.75;3.75;;;;;;;;;;5074298;28;20499;-62
2022/11/21 04:05:15;;;;;;;5.22;4.38;;;;;;;;;;5074358;28;20098;-62
2022/11/21 04:07:40;;;;;;;5.38;4.13;;;;;;;;;;5073378;28;20029;-62
2022/11/21 04:10:06;;;;;;;4.65;3.55;;;;;;;;;;5073967;28;20463;-63
2022/11/21 04:12:31;;;;;;;4.30;3.90;;;;;;;;;;5074304;28;20732;-70
2022/11/21 04:14:57;;;;;;;5.28;3.95;;;;;;;;;;5056286;28;20020;-69
2022/11/21 04:17:22;;;;;;;5.85;4.00;;;;;;;;;;5073934;28;20028;-68
2022/11/21 04:19:48;;;;;;;5.38;3.97;;;;;;;;;;5073969;28;20510;-69
2022/11/21 04:22:13;;;;;;;5.13;3.83;;;;;;;;;;5074104;28;20070;-69
2022/11/21 04:24:39;;;;;;;4.70;3.80;;;;;;;;;;5073788;28;20116;-69
2022/11/21 04:27:04;;;;;;;4.85;3.72;;;;;;;;;;5073764;28;20104;-69
2022/11/21 04:29:30;;;;;;;5.53;3.80;;;;;;;;;;5073806;28;20020;-68
2022/11/21 04:31:55;;;;;;;4.50;3.67;;;;;;;;;;5073670;28;20016;-61
2022/11/21 04:34:21;;;;;;;5.93;4.05;;;;;;;;;;5073602;28;20107;-62
2022/11/21 04:36:46;;;;;;;3.95;3.55;;;;;;;;;;5073791;28;20025;-62
2022/11/21 04:39:12;;;;;;;5.15;4.30;;;;;;;;;;5073471;28;20032;-63
2022/11/21 04:41:37;;;;;;;5.38;3.97;;;;;;;;;;5073471;28;20027;-62
2022/11/21 04:44:03;;;;;;;5.30;3.72;;;;;;;;;;5073414;28;20034;-64
2022/11/21 04:46:29;;;;;;;5.53;3.92;;;;;;;;;;5073435;28;20494;-62
2022/11/21 04:48:54;;;;;;;4.57;3.92;;;;;;;;;;5073620;28;20027;-62
2022/11/21 04:51:20;;;;;;;5.35;3.97;;;;;;;;;;5055386;28;20114;-68
2022/11/21 04:53:45;;;;;;;5.55;3.95;;;;;;;;;;5073305;28;20419;-69
2022/11/21 04:56:15;;;;;;;5.10;3.80;;;;;;;;;;5073200;28;20051;-62
2022/11/21 04:58:41;;;;;;;5.70;3.70;;;;;;;;;;5073159;28;20017;-68
2022/11/21 05:01:08;;;;;;;4.80;4.07;;;;;;;;;;5073113;28;20276;-70
2022/11/21 05:03:34;;;;;;;3.72;3.42;;;;;;;;;;5073050;28;20384;-67
2022/11/21 05:05:59;;;;;;;3.90;3.50;;;;;;;;;;5072953;28;20107;-70
2022/11/21 05:08:25;;;;;;;4.20;3.80;;;;;;;;;;5072899;28;20555;-68
2022/11/21 05:13:34;;;;;;;7.00;3.88;;;;;;;;;;5073219;28;20116;-69
2022/11/21 05:16:00;;;;;;;4.82;3.60;;;;;;;;;;5072747;28;20107;-62
2022/11/21 05:18:25;;;;;;;4.50;3.90;;;;;;;;;;5072522;28;20025;-62
2022/11/21 05:20:51;;;;;;;4.88;3.80;;;;;;;;;;5073039;28;20172;-63
2022/11/21 05:23:16;;;;;;;3.70;3.30;;;;;;;;;;5072766;28;20476;-62
2022/11/21 05:25:42;;;;;;;3.95;3.55;;;;;;;;;;5072574;28;20021;-63
2022/11/21 05:28:08;;;;;;;4.57;3.60;;;;;;;;;;5054750;28;20025;-63
2022/11/21 05:30:33;;;;;;;3.95;3.40;;;;;;;;;;5072817;28;20410;-63
2022/11/21 05:32:59;;;;;;;4.07;3.65;;;;;;;;;;5072602;28;20016;-64
2022/11/21 05:35:24;;;;;;;5.05;3.72;;;;;;;;;;5072897;28;20035;-62
2022/11/21 05:37:57;;;;;;;5.13;3.50;;;;;;;;;;5072580;28;20396;-62
2022/11/21 05:40:23;;;;;;;4.15;3.60;;;;;;;;;;5072788;28;20537;-64
2022/11/21 05:45:32;;;;;;;4.47;3.83;;;;;;;;;;5057378;28;20170;-61
2022/11/21 05:47:58;;;;;;;4.10;3.47;;;;;;;;;;5072476;28;20052;-61
2022/11/21 05:50:23;;;;;;;4.63;3.80;;;;;;;;;;5072450;28;20027;-61
2022/11/21 05:52:49;;;;;;;4.05;3.60;;;;;;;;;;5072464;28;20431;-63
2022/11/21 05:55:14;;;;;;;4.68;3.53;;;;;;;;;;5072589;28;20027;-61
2022/11/21 05:57:40;;;;;;;4.28;3.40;;;;;;;;;;5072415;28;20077;-69
2022/11/21 06:00:06;;;;;;;4.25;3.65;;;;;;;;;;5072544;28;20473;-62
2022/11/21 06:05:36;;;;;;;3.85;3.33;;;;;;;;;;4990554;28;20034;-68
2022/11/21 06:08:01;;;;;;;5.10;3.85;;;;;;;;;;4990686;28;20101;-69
2022/11/21 06:10:27;;;;;;;4.30;3.80;;;;;;;;;;5009321;28;20050;-63
2022/11/21 06:12:52;;;;;;;6.25;4.18;;;;;;;;;;5032322;28;20547;-68
2022/11/21 06:15:18;;;;;;;4.03;3.40;;;;;;;;;;5032035;28;20029;-63
2022/11/21 06:17:43;;;;;;;4.88;3.85;;;;;;;;;;5047428;28;20083;-66
2022/11/21 06:20:09;;;;;;;5.18;3.75;;;;;;;;;;5032197;28;20053;-64
2022/11/21 06:22:35;;;;;;;4.28;3.72;;;;;;;;;;5032122;28;20362;-65
2022/11/21 06:25:00;;;;;;;4.53;3.50;;;;;;;;;;5032036;28;20176;-64
2022/11/21 06:27:28;;;;;;;4.72;3.72;;;;;;;;;;5030786;28;20034;-68
2022/11/21 06:29:53;;;;;;;4.85;3.90;;;;;;;;;;5032066;28;20033;-67
2022/11/21 06:32:19;;;;;;;5.47;4.05;;;;;;;;;;5035399;28;20059;-67
2022/11/21 06:34:45;;;;;;;4.18;3.78;;;;;;;;;;5018579;28;20057;-68
2022/11/21 06:37:11;;;;;;;4.43;3.67;;;;;;;;;;5035846;28;20422;-70
2022/11/21 06:39:37;;;;;;;4.35;3.70;;;;;;;;;;5051219;28;20112;-69
2022/11/21 06:42:02;;;;;;;4.18;3.78;;;;;;;;;;5035775;28;20099;-68
2022/11/21 06:44:28;;;;;;;5.05;4.13;;;;;;;;;;5035633;28;20079;-68
2022/11/21 06:46:53;;;;;;;4.50;3.60;;;;;;;;;;5035722;28;20022;-69
2022/11/21 06:49:20;;;;;;;4.90;3.63;;;;;;;;;;5035687;28;20030;-69
2022/11/21 06:51:46;;;;;;;5.32;3.63;;;;;;;;;;5035486;28;20032;-68
2022/11/21 06:54:12;;;;;;;5.07;3.83;;;;;;;;;;5035903;28;20029;-67
2022/11/21 06:56:38;;;;;;;4.10;3.70;;;;;;;;;;5035519;28;20511;-65
2022/11/21 06:59:03;;;;;;;4.43;3.75;;;;;;;;;;5035518;28;20025;-67
2022/11/21 07:01:29;;;;;;;4.85;3.80;;;;;;;;;;5035727;28;20029;-65
2022/11/21 07:03:55;;;;;;;3.92;3.53;;;;;;;;;;5035332;28;20377;-69
2022/11/21 07:06:20;;;;;;;5.22;4.15;;;;;;;;;;5035547;28;20026;-69
2022/11/21 07:08:46;;;;;;;4.68;4.00;;;;;;;;;;5035291;28;20116;-67
2022/11/21 07:11:13;;;;;;;4.60;3.70;;;;;;;;;;5068051;28;20127;-67
2022/11/21 07:13:39;;;;;;;4.90;3.67;;;;;;;;;;5075363;28;20372;-70
2022/11/21 07:16:09;;;;;;;4.63;3.70;;;;;;;;;;5075121;28;20154;-69
2022/11/21 07:18:35;;;;;;;4.93;3.97;;;;;;;;;;5075065;28;20357;-69
2022/11/21 07:21:04;;;;;;;4.35;3.95;;;;;;;;;;5075021;28;20035;-68
2022/11/21 07:23:30;;;;;;;4.63;3.60;;;;;;;;;;5074994;28;20082;-62
2022/11/21 07:26:04;;;;;;;4.25;3.80;;;;;;;;;;5072683;28;20090;-62
2022/11/21 07:28:31;;;;;;;3.97;3.58;;;;;;;;;;5052706;28;20016;-63
2022/11/21 07:30:57;;;;;;;5.18;3.80;;;;;;;;;;5046626;28;20021;-67
2022/11/21 07:33:23;;;;;;;4.15;3.50;;;;;;;;;;5061742;28;20498;-63
2022/11/21 07:35:49;;;;;;;4.50;3.63;;;;;;;;;;5068817;28;20028;-72
2022/11/21 07:38:15;;;;;;;4.95;3.60;;;;;;;;;;5074342;28;20035;-70
2022/11/21 07:40:40;;;;;;;4.10;3.50;;;;;;;;;;5074802;28;20035;-71
2022/11/21 07:43:06;;;;;;;4.90;3.97;;;;;;;;;;5056428;28;20357;-72
2022/11/21 07:45:35;;;;;;;5.28;3.97;;;;;;;;;;5071771;28;20543;-68
2022/11/21 07:48:03;;;;;;;4.57;3.75;;;;;;;;;;5072110;28;20032;-70
2022/11/21 07:50:29;;;;;;;4.53;4.13;;;;;;;;;;5054885;28;20033;-72
2022/11/21 07:53:03;;;;;;;4.25;3.80;;;;;;;;;;5055325;28;20090;-67
2022/11/21 07:55:29;;;;;;;5.07;4.03;;;;;;;;;;5073072;28;20032;-65
2022/11/21 07:58:06;;;;;;;4.65;3.53;;;;;;;;;;5071035;28;20670;-69
2022/11/21 08:00:34;;;;;;;5.75;3.75;;;;;;;;;;5045788;28;20040;-63
2022/11/21 08:03:00;;;;;;;4.30;3.70;;;;;;;;;;5035145;28;20036;-70
2022/11/21 08:05:25;;;;;;;3.85;3.50;;;;;;;;;;5061758;28;20030;-71
2022/11/21 08:07:51;;;;;;;4.13;3.72;;;;;;;;;;5054740;28;20028;-61
2022/11/21 08:10:18;;;;;;;4.53;3.83;;;;;;;;;;5072621;28;20048;-61
2022/11/21 08:12:44;;;;;;;5.90;3.42;;;;;;;;;;5076218;28;20031;-66
2022/11/21 08:15:11;;;;;;;4.72;3.67;;;;;;;;;;5081403;28;20031;-65
2022/11/21 08:17:39;;;;;;;4.20;3.80;;;;;;;;;;5075348;28;20714;-68
2022/11/21 08:20:07;;;;;;;4.47;3.72;;;;;;;;;;5078401;28;20020;-67
2022/11/21 08:22:40;;;;;;;4.47;3.63;;;;;;;;;;5079880;28;20460;-64
2022/11/21 08:25:07;;;;;;;4.30;3.88;;;;;;;;;;5053976;28;20040;-67
2022/11/21 08:27:32;;;;;;;5.75;3.50;;;;;;;;;;5072191;28;20028;-69
2022/11/21 08:29:58;;;;;;;5.07;3.80;;;;;;;;;;5070478;28;20031;-62
2022/11/21 08:32:23;;;;;;;6.18;4.25;;;;;;;;;;5069189;28;20024;-61
2022/11/21 08:34:49;;;;;;;4.80;3.90;;;;;;;;;;5071901;28;20024;-61
2022/11/21 08:37:14;;;;;;;5.45;3.92;;;;;;;;;;5071712;28;20017;-62
2022/11/21 08:39:40;;;;;;;4.07;3.53;;;;;;;;;;5071765;28;20038;-66
2022/11/21 08:42:06;;;;;;;3.97;3.58;;;;;;;;;;5072041;28;20024;-62
2022/11/21 08:44:33;;;;;;;4.07;3.55;;;;;;;;;;5053673;28;20046;-62
2022/11/21 08:47:00;;;;;;;4.72;3.85;;;;;;;;;;5071752;28;20029;-65
2022/11/21 08:49:26;;;;;;;5.75;3.90;;;;;;;;;;5053818;28;20032;-64
2022/11/21 08:51:52;;;;;;;5.53;3.58;;;;;;;;;;5071598;28;20641;-62
2022/11/21 08:54:20;;;;;;;4.47;3.45;;;;;;;;;;5053001;28;20040;-63
2022/11/21 08:56:45;;;;;;;4.10;3.63;;;;;;;;;;5071457;28;20464;-61
2022/11/21 08:59:11;;;;;;;5.30;3.47;;;;;;;;;;5053342;28;20044;-64
2022/11/21 09:01:37;;;;;;;4.30;3.90;;;;;;;;;;5071549;28;20039;-62
2022/11/21 09:04:04;;;;;;;4.50;3.60;;;;;;;;;;5068107;28;20756;-62
2022/11/21 09:06:30;;;;;;;4.93;3.70;;;;;;;;;;5068989;28;20144;-63
2022/11/21 09:08:55;;;;;;;4.63;3.85;;;;;;;;;;5071388;28;20535;-69
2022/11/21 09:11:21;;;;;;;4.30;3.55;;;;;;;;;;5071105;28;20150;-63
2022/11/21 09:19:20;;;;;;;4.40;3.65;;;;;;;;;;5071278;28;20032;-70
2022/11/21 09:21:50;;;;;;;4.35;3.95;;;;;;;;;;5051699;28;20431;-62
2022/11/21 09:24:15;;;;;;;6.20;3.83;;;;;;;;;;5070494;28;20032;-73
2022/11/21 09:26:41;;;;;;;3.85;3.45;;;;;;;;;;5071306;28;20300;-69
2022/11/21 09:29:09;;;;;;;3.85;3.35;;;;;;;;;;5051590;28;20032;-72
2022/11/21 09:31:38;;;;;;;4.32;3.35;;;;;;;;;;5070386;28;20086;-71
2022/11/21 09:34:03;;;;;;;4.00;3.60;;;;;;;;;;5069702;28;20046;-67
2022/11/21 09:36:29;;;;;;;4.15;3.75;;;;;;;;;;5052814;28;20107;-65
2022/11/21 09:38:55;;;;;;;4.82;3.50;;;;;;;;;;5070900;28;20024;-64
2022/11/21 09:41:53;;;;;;;3.75;3.35;;;;;;;;;;5070978;28;20086;-68
2022/11/21 09:44:52;;;;;;;4.78;3.83;;;;;;;;;;5069179;28;20115;-66
2022/11/21 09:47:26;;;;;;;4.32;3.80;;;;;;;;;;5069105;28;20355;-64
2022/11/21 09:50:07;;;;;;;3.53;3.22;;;;;;;;;;5069869;28;20425;-63
2022/11/21 09:53:04;;;;;;;4.55;3.88;;;;;;;;;;5051043;28;20024;-61
2022/11/21 09:55:58;;;;;;;5.88;3.40;;;;;;;;;;5051800;28;20123;-63
2022/11/21 09:58:31;;;;;;;3.83;3.45;;;;;;;;;;5070610;28;20452;-66
2022/11/21 10:00:57;;;;;;;4.30;3.45;;;;;;;;;;5049750;28;20024;-67
2022/11/21 10:03:26;;;;;;;4.10;3.70;;;;;;;;;;5070343;28;20060;-62
2022/11/21 10:06:12;;;;;;;4.03;3.60;;;;;;;;;;5071669;28;20033;-67
2022/11/21 10:08:56;;;;;;;5.32;3.47;;;;;;;;;;5087317;28;20032;-63
2022/11/21 10:11:28;;;;;;;4.25;3.53;;;;;;;;;;5094753;28;20055;-65
2022/11/21 10:14:08;;;;;;;4.32;3.70;;;;;;;;;;5094863;28;20073;-66
2022/11/21 10:16:39;;;;;;;;;;;;;;;;;;5095467;28;20031;-71
2022/11/21 10:19:31;;;;;;;4.10;3.50;;;;;;;;;;5094834;28;19935;-65
2022/11/21 10:22:06;;;;;;;3.70;3.40;;;;;;;;;;5024608;28;20052;-61
2022/11/21 10:24:34;;;;;;;4.15;3.50;;;;;;;;;;5074409;28;20114;-61
2022/11/21 10:27:15;;;;;;;4.57;3.42;;;;;;;;;;5055681;28;20024;-67
2022/11/21 10:29:53;;;;;;;4.25;3.65;;;;;;;;;;5081933;28;20094;-71
2022/11/21 10:32:21;;;;;;;3.80;3.40;;;;;;;;;;5077882;28;20056;-70
2022/11/21 10:34:49;;;;;;;3.85;3.47;;;;;;;;;;5069701;28;20032;-70
2022/11/21 10:37:26;;;;;;;3.92;3.50;;;;;;;;;;5072712;28;20027;-69
2022/11/21 10:39:53;;;;;;;4.03;3.50;;;;;;;;;;5074230;28;20099;-65
2022/11/21 10:42:36;;;;;;;4.53;3.30;;;;;;;;;;5074197;28;20028;-64
2022/11/21 10:45:15;;;;;;;4.40;3.60;;;;;;;;;;5074018;28;20040;-65
2022/11/21 10:47:42;;;;;;;5.22;3.67;;;;;;;;;;5072749;28;20039;-63
2022/11/21 10:50:28;;;;;;;3.60;3.30;;;;;;;;;;5073992;28;20029;-62
2022/11/21 10:56:08;;;;;;;3.80;3.40;;;;;;;;;;5074211;28;20042;-62
2022/11/21 10:58:54;;;;;;;4.00;3.35;;;;;;;;;;5073787;28;20384;-61
2022/11/21 11:01:30;;;;;;;4.30;3.38;;;;;;;;;;5073867;28;20028;-64
2022/11/21 11:04:10;;;;;;;11.25;3.55;;;;;;;;;;5073043;28;20040;-62
2022/11/21 11:06:38;;;;;;;4.13;3.42;;;;;;;;;;5079259;28;20800;-61
2022/11/21 11:09:06;;;;;;;5.35;3.45;;;;;;;;;;5055548;28;20480;-62
2022/11/21 11:11:32;;;;;;;4.97;3.60;;;;;;;;;;5073466;28;20064;-61
2022/11/21 11:14:04;;;;;;;4.20;3.80;;;;;;;;;;5073443;28;20074;-61
2022/11/21 11:16:31;;;;;;;6.22;3.55;;;;;;;;;;5073099;28;20103;-61
2022/11/21 11:19:19;;;;;;;3.97;3.58;;;;;;;;;;5073623;28;20387;-63
2022/11/21 11:21:46;;;;;;;5.97;3.35;;;;;;;;;;5073308;28;20031;-62
2022/11/21 11:24:12;;;;;;;3.88;3.40;;;;;;;;;;5070962;28;20063;-61
2022/11/21 11:26:59;;;;;;;4.03;3.47;;;;;;;;;;5078081;28;20116;-62
2022/11/21 11:29:49;;;;;;;6.25;3.17;;;;;;;;;;5093450;28;20384;-62
2022/11/21 11:32:17;;;;;;;5.28;3.55;;;;;;;;;;5075234;28;20032;-60
2022/11/21 11:34:57;;;;;;;4.00;3.60;;;;;;;;;;5077318;28;20145;-60
2022/11/21 11:37:28;;;;;;;4.25;3.38;;;;;;;;;;5072945;28;20024;-60
2022/11/21 11:40:17;;;;;;;3.78;3.45;;;;;;;;;;5073154;28;20108;-60
2022/11/21 11:48:56;;;;;;;4.97;2.78;;;;;;;;;;5075699;28;20048;-64
2022/11/21 11:51:34;;;;;;;3.85;3.38;;;;;;;;;;5082651;28;20024;-62
2022/11/21 11:54:16;;;;;;;3.80;3.20;;;;;;;;;;5077579;28;20093;-61
2022/11/21 11:56:43;;;;;;;4.13;3.58;;;;;;;;;;5063712;28;20035;-63
2022/11/21 11:59:09;;;;;;;3.50;3.17;;;;;;;;;;5077441;28;20131;-63
2022/11/21 12:01:57;;;;;;;3.53;3.22;;;;;;;;;;5061191;28;20115;-63
2022/11/21 12:04:28;;;;;;;4.25;3.08;;;;;;;;;;5070520;28;20028;-63
2022/11/21 12:07:01;;;;;;;;;;;;;;;;;;5077714;28;20032;-61
2022/11/21 12:09:39;;;;;;;3.70;3.25;;;;;;;;;;5073179;28;20341;-62
2022/11/21 12:12:22;;;;;;;4.10;3.10;;;;;;;;;;5077312;28;20029;-60
2022/11/21 12:18:01;;;;;;;3.85;3.42;;;;;;;;;;5081297;28;20090;-60
2022/11/21 12:20:48;;;;;;;3.63;3.10;;;;;;;;;;5077276;28;20463;-62
2022/11/21 12:23:14;;;;;;;3.58;3.28;;;;;;;;;;5077523;28;20032;-61
2022/11/21 12:25:52;;;;;;;4.10;3.25;;;;;;;;;;5079328;28;20032;-62
2022/11/21 12:28:26;;;;;;;4.72;3.17;;;;;;;;;;5071661;28;20403;-62
2022/11/21 12:31:04;;;;;;;3.70;3.33;;;;;;;;;;5054279;28;20123;-62
2022/11/21 12:33:34;;;;;;;3.85;3.30;;;;;;;;;;5054747;28;20033;-62
2022/11/21 12:36:41;;;;;;;7.90;3.30;;;;;;;;;;5071360;28;20029;-61
2022/11/21 12:39:29;;;;;;;4.97;3.30;;;;;;;;;;5051963;28;20166;-63
2022/11/21 12:45:20;;;;;;;4.32;3.30;;;;;;;;;;5071957;28;20099;-64
2022/11/21 12:54:30;;;;;;;7.75;4.75;;;;;;;;;;5079162;28;20051;-66
2022/11/21 12:57:11;;;;;;;6.75;4.20;;;;;;;;;;5053528;28;20043;-63
2022/11/21 12:59:39;;;;;;;5.75;4.00;;;;;;;;;;5071498;28;20511;-62
2022/11/21 13:02:27;;;;;;;5.93;3.90;;;;;;;;;;5054881;28;20047;-62
2022/11/21 13:04:56;;;;;;;4.32;3.92;;;;;;;;;;5071157;28;20032;-61
2022/11/21 13:07:24;;;;;;;7.55;3.90;;;;;;;;;;5071253;28;20111;-63
2022/11/21 13:09:53;;;;;;;5.00;3.60;;;;;;;;;;5077562;28;20617;-61
2022/11/21 13:12:42;;;;;;;3.75;3.45;;;;;;;;;;5091538;28;20028;-61
2022/11/21 13:15:25;;;;;;;4.57;3.45;;;;;;;;;;5091396;28;20020;-62
2022/11/21 13:18:01;;;;;;;5.00;3.58;;;;;;;;;;5091318;28;20101;-61
2022/11/21 13:20:49;;;;;;;5.15;3.97;;;;;;;;;;5073205;28;20039;-63
2022/11/21 13:23:36;;;;;;;3.67;3.38;;;;;;;;;;5091238;28;20024;-62
2022/11/21 13:26:06;;;;;;;7.60;3.80;;;;;;;;;;5073057;28;20032;-65
2022/11/21 13:28:33;;;;;;;4.10;3.70;;;;;;;;;;5091343;28;20039;-61
2022/11/21 13:31:01;;;;;;;5.28;3.30;;;;;;;;;;5088306;28;20492;-61
2022/11/21 13:33:38;;;;;;;7.13;3.30;;;;;;;;;;5087994;28;20391;-61
2022/11/21 13:36:33;;;;;;;5.75;3.50;;;;;;;;;;5084151;28;20108;-62
2022/11/21 13:38:59;;;;;;;3.83;3.40;;;;;;;;;;5065781;28;20024;-61
2022/11/21 13:44:29;;;;;;;4.57;3.25;;;;;;;;;;5070841;28;20190;-67
2022/11/21 13:47:11;;;;;;;4.03;3.40;;;;;;;;;;5070760;28;20375;-60
2022/11/21 13:49:42;;;;;;;3.47;3.17;;;;;;;;;;5052777;28;20021;-61
2022/11/21 13:52:39;;;;;;;6.78;3.90;;;;;;;;;;5052515;28;20576;-64
2022/11/21 13:55:10;;;;;;;5.25;4.03;;;;;;;;;;5073352;28;20033;-61
2022/11/21 13:57:58;;;;;;;4.10;3.63;;;;;;;;;;5070621;28;20035;-65
2022/11/21 14:00:42;;;;;;;3.75;3.35;;;;;;;;;;5070679;28;20500;-62
2022/11/21 14:03:26;;;;;;;4.93;3.58;;;;;;;;;;5070652;28;20021;-62
2022/11/21 14:06:22;;;;;;;5.18;3.53;;;;;;;;;;5070504;28;20040;-61
2022/11/21 14:09:12;;;;;;;6.40;3.22;;;;;;;;;;5070599;28;20036;-65
2022/11/21 14:12:07;;;;;;;4.05;3.65;;;;;;;;;;5070603;28;20028;-62
2022/11/21 14:14:52;;;;;;;4.30;3.47;;;;;;;;;;5068005;28;20040;-63
2022/11/21 14:17:44;;;;;;;6.05;3.78;;;;;;;;;;5052365;28;20024;-63
2022/11/21 14:20:18;;;;;;;7.05;3.20;;;;;;;;;;5068858;28;20384;-61
2022/11/21 14:22:59;;;;;;;3.70;3.15;;;;;;;;;;5068324;28;20099;-62
2022/11/21 14:25:48;;;;;;;4.88;3.30;;;;;;;;;;5080645;28;20387;-65
2022/11/21 14:28:25;;;;;;;4.72;3.10;;;;;;;;;;5076535;28;20553;-62
2022/11/21 14:31:05;;;;;;;6.40;3.30;;;;;;;;;;5070312;28;20402;-65
2022/11/21 14:33:36;;;;;;;5.75;3.28;;;;;;;;;;5075790;28;20023;-65
2022/11/21 14:36:03;;;;;;;5.63;3.45;;;;;;;;;;5090505;28;20518;-61
2022/11/21 14:38:32;;;;;;;5.97;3.25;;;;;;;;;;5076430;28;20028;-60
2022/11/21 14:41:31;;;;;;;6.60;3.67;;;;;;;;;;5075603;28;20083;-63
2022/11/21 14:43:57;;;;;;;3.67;3.13;;;;;;;;;;5023649;28;20045;-63
2022/11/21 14:46:30;;;;;;;4.07;3.25;;;;;;;;;;5062510;28;20086;-63
2022/11/21 14:48:56;;;;;;;6.50;3.60;;;;;;;;;;5078254;28;20051;-64
2022/11/21 14:51:26;;;;;;;3.90;3.20;;;;;;;;;;5075581;28;20052;-62
2022/11/21 14:53:53;;;;;;;4.20;3.30;;;;;;;;;;5082779;28;20055;-65
2022/11/21 14:56:30;;;;;;;3.67;3.17;;;;;;;;;;5055724;28;20032;-67
2022/11/21 14:58:58;;;;;;;4.03;3.53;;;;;;;;;;5073955;28;20085;-65
2022/11/21 15:01:32;;;;;;;5.20;3.33;;;;;;;;;;5073570;28;20095;-63
2022/11/21 15:04:04;;;;;;;3.38;3.08;;;;;;;;;;5071976;28;20060;-66
2022/11/21 15:06:32;;;;;;;4.63;3.15;;;;;;;;;;5073057;28;20037;-63
2022/11/21 15:09:01;;;;;;;3.20;2.90;;;;;;;;;;5073517;28;20101;-62
2022/11/21 15:11:35;;;;;;;4.88;3.40;;;;;;;;;;5073499;28;20040;-66
2022/11/21 15:14:09;;;;;;;8.57;3.10;;;;;;;;;;5073669;28;20583;-63
2022/11/21 15:16:35;;;;;;;4.22;3.30;;;;;;;;;;5056343;28;20468;-67
2022/11/21 15:19:07;;;;;;;4.97;3.47;;;;;;;;;;5073364;28;20021;-68
2022/11/21 15:21:32;;;;;;;4.82;3.70;;;;;;;;;;5073554;28;20043;-70
2022/11/21 15:24:15;;;;;;;4.75;3.47;;;;;;;;;;5071896;28;20028;-69
2022/11/21 15:26:41;;;;;;;3.42;3.13;;;;;;;;;;5073854;28;20037;-69
2022/11/21 15:29:19;;;;;;;5.32;3.17;;;;;;;;;;5073281;28;20480;-66
2022/11/21 15:31:46;;;;;;;3.42;3.05;;;;;;;;;;5073100;28;20119;-62
2022/11/21 15:34:24;;;;;;;4.10;3.20;;;;;;;;;;5053086;28;20024;-67
2022/11/21 15:37:13;;;;;;;5.55;3.17;;;;;;;;;;5071161;28;20037;-61
2022/11/21 15:39:48;;;;;;;4.00;3.30;;;;;;;;;;5070731;28;20173;-67
2022/11/21 15:42:32;;;;;;;3.88;3.45;;;;;;;;;;5054171;28;20040;-69